createdAt,value
2022-10-18T00:02:15.109Z,42.45
2022-10-18T00:04:41.791Z,41.53
2022-10-18T00:07:08.404Z,47.58
2022-10-18T00:09:35.037Z,48.15
2022-10-18T00:12:01.678Z,46.50
2022-10-18T00:14:28.359Z,38.90
2022-10-18T00:16:54.980Z,42.10
2022-10-18T00:19:25.828Z,43.05
2022-10-18T00:21:55.141Z,42.92
2022-10-18T00:24:21.795Z,43.92
2022-10-18T00:26:48.501Z,54.47
2022-10-18T00:29:16.275Z,48.88
2022-10-18T00:31:44.113Z,43.80
2022-10-18T00:34:13.952Z,45.92
2022-10-18T00:36:41.368Z,52.83
2022-10-18T00:39:09.509Z,44.63
2022-10-18T00:41:38.115Z,47.28
2022-10-18T00:44:10.757Z,45.35
2022-10-18T00:46:40.342Z,48.45
2022-10-18T00:49:13.005Z,49.45
2022-10-18T00:51:51.545Z,49.25
2022-10-18T00:54:20.761Z,53.58
2022-10-18T00:56:47.424Z,46.45
2022-10-18T00:59:15.964Z,47.63
2022-10-18T01:01:43.250Z,46.08
2022-10-18T01:04:10.391Z,49.58
2022-10-18T01:09:52.638Z,43.00
2022-10-18T01:12:33.073Z,41.15
2022-10-18T01:15:10.655Z,41.95
2022-10-18T01:17:43.409Z,44.83
2022-10-18T01:20:28.464Z,42.58
2022-10-18T01:23:23.070Z,49.20
2022-10-18T01:26:11.073Z,51.95
2022-10-18T01:28:56.061Z,39.58
2022-10-18T01:31:39.915Z,42.20
2022-10-18T01:34:10.264Z,46.83
2022-10-18T01:36:46.300Z,43.88
2022-10-18T01:39:19.912Z,50.60
2022-10-18T01:41:49.298Z,44.35
2022-10-18T01:44:21.409Z,42.45
2022-10-18T01:46:49.123Z,42.40
2022-10-18T01:49:15.838Z,46.97
2022-10-18T01:51:42.464Z,49.63
2022-10-18T01:54:11.792Z,50.05
2022-10-18T01:56:58.697Z,48.10
2022-10-18T02:00:06.417Z,52.47
2022-10-18T02:02:57.898Z,58.28
2022-10-18T02:05:41.622Z,46.90
2022-10-18T02:08:22.958Z,45.55
2022-10-18T02:11:03.854Z,40.50
2022-10-18T02:13:36.178Z,52.03
2022-10-18T02:16:10.129Z,50.17
2022-10-18T02:18:41.808Z,49.17
2022-10-18T02:21:13.723Z,48.00
2022-10-18T02:23:40.396Z,47.38
2022-10-18T02:26:07.249Z,42.15
2022-10-18T02:28:33.916Z,54.13
2022-10-18T02:31:38.903Z,49.80
2022-10-18T02:34:21.616Z,48.25
2022-10-18T02:36:58.274Z,45.10
2022-10-18T02:39:32.260Z,48.65
2022-10-18T02:41:59.832Z,43.87
2022-10-18T02:44:26.671Z,42.50
2022-10-18T02:46:53.589Z,49.63
2022-10-18T02:49:20.206Z,45.67
2022-10-18T02:51:46.804Z,45.28
2022-10-18T02:54:13.531Z,47.63
2022-10-18T02:56:40.184Z,53.45
2022-10-18T02:59:07.576Z,51.85
2022-10-18T03:01:36.375Z,45.88
2022-10-18T03:04:04.112Z,50.60
2022-10-18T03:06:31.340Z,52.78
2022-10-18T03:08:57.976Z,41.58
2022-10-18T03:11:24.728Z,49.38
2022-10-18T03:13:51.448Z,40.97
2022-10-18T03:16:18.576Z,41.92
2022-10-18T03:18:45.205Z,43.45
2022-10-18T03:21:11.915Z,52.40
2022-10-18T03:23:38.655Z,42.90
2022-10-18T03:26:05.422Z,47.40
2022-10-18T03:28:32.057Z,47.28
2022-10-18T03:31:02.561Z,53.08
2022-10-18T03:33:29.991Z,48.28
2022-10-18T03:35:56.693Z,53.30
2022-10-18T03:38:23.680Z,46.65
2022-10-18T03:40:50.469Z,52.75
2022-10-18T03:43:17.107Z,42.00
2022-10-18T03:45:43.888Z,45.10
2022-10-18T03:48:10.565Z,47.80
2022-10-18T03:50:37.197Z,47.55
2022-10-18T03:53:04.076Z,42.22
2022-10-18T03:55:30.708Z,47.15
2022-10-18T03:57:57.330Z,42.20
2022-10-18T04:00:24.021Z,55.15
2022-10-18T04:02:53.351Z,43.60
2022-10-18T04:05:24.240Z,53.30
2022-10-18T04:07:50.931Z,46.63
2022-10-18T04:10:18.795Z,43.83
2022-10-18T04:12:45.647Z,43.45
2022-10-18T04:15:12.466Z,45.65
2022-10-18T04:17:39.134Z,40.15
2022-10-18T04:20:06.378Z,44.03
2022-10-18T04:22:32.967Z,44.30
2022-10-18T04:24:59.755Z,41.95
2022-10-18T04:27:26.810Z,49.63
2022-10-18T04:29:53.405Z,51.25
2022-10-18T04:32:20.018Z,45.40
2022-10-18T04:34:46.668Z,43.72
2022-10-18T04:37:13.355Z,40.75
2022-10-18T04:39:39.993Z,47.63
2022-10-18T04:42:06.650Z,50.58
2022-10-18T04:44:34.504Z,48.58
2022-10-18T04:47:01.098Z,42.65
2022-10-18T04:49:27.733Z,57.05
2022-10-18T04:51:54.378Z,43.42
2022-10-18T04:54:22.789Z,52.67
2022-10-18T04:56:51.781Z,44.55
2022-10-18T04:59:18.458Z,39.67
2022-10-18T05:01:45.255Z,48.83
2022-10-18T05:04:12.245Z,50.75
2022-10-18T05:06:38.864Z,42.72
2022-10-18T05:09:06.451Z,47.97
2022-10-18T05:11:33.118Z,43.47
2022-10-18T05:13:59.785Z,40.42
2022-10-18T05:16:28.430Z,45.67
2022-10-18T05:18:55.139Z,47.42
2022-10-18T05:21:21.864Z,42.53
2022-10-18T05:23:48.494Z,42.25
2022-10-18T05:26:15.108Z,51.15
2022-10-18T05:28:41.782Z,52.33
2022-10-18T05:31:10.211Z,40.83
2022-10-18T05:33:36.981Z,38.67
2022-10-18T05:36:04.607Z,44.83
2022-10-18T05:38:31.490Z,42.90
2022-10-18T05:40:59.258Z,36.28
2022-10-18T05:43:29.162Z,35.35
2022-10-18T05:45:56.246Z,42.42
2022-10-18T05:48:22.958Z,44.97
2022-10-18T05:50:49.638Z,37.17
2022-10-18T05:53:35.729Z,49.13
2022-10-18T05:56:03.976Z,37.58
2022-10-18T05:58:30.585Z,44.00
2022-10-18T06:01:05.098Z,41.45
2022-10-18T06:03:32.152Z,39.78
2022-10-18T06:06:09.547Z,42.70
2022-10-18T06:08:36.702Z,42.90
2022-10-18T06:11:11.378Z,36.45
2022-10-18T06:13:45.245Z,52.35
2022-10-18T06:16:13.197Z,52.60
2022-10-18T06:18:40.630Z,41.10
2022-10-18T06:21:08.207Z,39.75
2022-10-18T06:23:35.636Z,36.08
2022-10-18T06:26:04.977Z,33.03
2022-10-18T06:28:34.141Z,29.67
2022-10-18T06:31:00.891Z,34.03
2022-10-18T06:33:27.642Z,36.53
2022-10-18T06:35:59.869Z,44.13
2022-10-18T06:38:27.964Z,32.42
2022-10-18T06:40:55.603Z,35.55
2022-10-18T06:43:22.742Z,39.22
2022-10-18T06:45:50.323Z,34.13
2022-10-18T06:51:00.713Z,34.28
2022-10-18T06:53:30.700Z,31.85
2022-10-18T06:56:05.166Z,29.13
2022-10-18T06:58:32.630Z,38.47
2022-10-18T07:00:59.895Z,34.38
2022-10-18T07:03:27.336Z,43.78
2022-10-18T07:05:54.002Z,33.47
2022-10-18T07:08:20.618Z,34.17
2022-10-18T07:10:53.729Z,33.65
2022-10-18T07:13:31.966Z,31.48
2022-10-18T07:16:06.031Z,31.55
2022-10-18T07:18:37.522Z,29.38
2022-10-18T07:21:06.329Z,30.95
2022-10-18T07:23:34.580Z,35.83
2022-10-18T07:26:02.102Z,24.60
2022-10-18T07:28:29.544Z,24.67
2022-10-18T07:30:56.768Z,25.25
2022-10-18T07:33:24.753Z,23.17
2022-10-18T07:35:51.438Z,23.42
2022-10-18T07:38:18.037Z,21.52
2022-10-18T07:40:44.639Z,24.77
2022-10-18T07:43:12.418Z,30.23
2022-10-18T07:45:39.068Z,25.33
2022-10-18T07:48:05.952Z,21.70
2022-10-18T07:50:32.560Z,22.08
2022-10-18T07:52:59.153Z,29.30
2022-10-18T07:55:25.807Z,17.88
2022-10-18T07:57:52.401Z,22.35
2022-10-18T08:00:19.030Z,18.50
2022-10-18T08:02:45.638Z,15.77
2022-10-18T08:05:12.224Z,18.98
2022-10-18T08:07:38.860Z,22.08
2022-10-18T08:10:05.891Z,15.68
2022-10-18T08:12:32.786Z,19.67
2022-10-18T08:14:59.414Z,18.50
2022-10-18T08:17:25.984Z,19.73
2022-10-18T08:20:04.819Z,12.75
2022-10-18T08:22:38.647Z,12.93
2022-10-18T08:25:05.702Z,28.10
2022-10-18T08:27:32.452Z,12.77
2022-10-18T08:30:01.806Z,12.98
2022-10-18T08:32:29.371Z,12.82
2022-10-18T08:34:56.150Z,12.77
2022-10-18T08:37:23.176Z,19.70
2022-10-18T08:39:50.061Z,12.52
2022-10-18T08:42:19.301Z,15.80
2022-10-18T08:44:48.727Z,12.10
2022-10-18T08:47:31.188Z,13.05
2022-10-18T08:50:04.464Z,11.57
2022-10-18T08:52:59.281Z,11.13
2022-10-18T08:55:31.064Z,11.93
2022-10-18T08:57:58.502Z,16.38
2022-10-18T09:00:30.667Z,12.10
2022-10-18T09:03:29.634Z,16.73
2022-10-18T09:06:09.580Z,13.23
2022-10-18T09:08:57.466Z,11.73
2022-10-18T09:11:36.765Z,10.45
2022-10-18T09:14:18.634Z,13.35
2022-10-18T09:17:15.825Z,14.75
2022-10-18T09:19:45.859Z,10.90
2022-10-18T09:22:18.929Z,11.95
2022-10-18T09:25:11.678Z,11.93
2022-10-18T09:28:03.720Z,12.55
2022-10-18T09:30:59.574Z,11.48
2022-10-18T09:33:36.194Z,13.75
2022-10-18T09:36:05.975Z,15.70
2022-10-18T09:38:40.491Z,11.27
2022-10-18T09:41:48.361Z,12.93
2022-10-18T09:44:24.117Z,20.40
2022-10-18T09:47:17.944Z,14.52
2022-10-18T09:49:49.081Z,12.90
2022-10-18T09:52:28.411Z,11.40
2022-10-18T09:55:01.281Z,12.18
2022-10-18T09:57:32.784Z,10.60
2022-10-18T10:00:01.551Z,11.10
2022-10-18T10:02:28.252Z,10.80
2022-10-18T10:04:55.769Z,10.93
2022-10-18T10:07:29.924Z,10.70
2022-10-18T10:10:13.963Z,10.13
2022-10-18T10:12:41.231Z,10.73
2022-10-18T10:15:22.770Z,11.05
2022-10-18T10:18:07.069Z,11.13
2022-10-18T10:20:49.018Z,12.32
2022-10-18T10:23:21.493Z,11.15
2022-10-18T10:25:57.369Z,11.27
2022-10-18T10:28:28.730Z,10.60
2022-10-18T10:31:15.314Z,11.48
2022-10-18T10:33:46.933Z,11.38
2022-10-18T10:36:21.294Z,11.02
2022-10-18T10:39:21.012Z,15.77
2022-10-18T10:41:50.722Z,11.50
2022-10-18T10:44:20.247Z,19.88
2022-10-18T10:46:49.704Z,14.45
2022-10-18T10:49:40.725Z,11.88
2022-10-18T10:52:28.394Z,10.38
2022-10-18T10:55:30.915Z,11.80
2022-10-18T10:57:50.239Z,11.27
2022-10-18T11:00:39.506Z,11.00
2022-10-18T11:03:28.608Z,10.20
2022-10-18T11:05:58.059Z,10.80
2022-10-18T11:08:28.271Z,10.52
2022-10-18T11:11:26.415Z,10.95
2022-10-18T11:14:25.820Z,10.50
2022-10-18T11:17:15.679Z,9.70
2022-10-18T11:19:56.008Z,11.20
2022-10-18T11:22:25.983Z,9.07
2022-10-18T11:24:52.634Z,11.55
2022-10-18T11:27:31.146Z,12.82
2022-10-18T11:30:24.942Z,9.82
2022-10-18T11:33:04.653Z,8.88
2022-10-18T11:35:33.991Z,9.10
2022-10-18T11:38:26.999Z,14.32
2022-10-18T11:41:11.888Z,11.68
2022-10-18T11:44:02.318Z,9.45
2022-10-18T11:46:48.019Z,11.57
2022-10-18T11:49:41.013Z,9.23
2022-10-18T11:52:17.927Z,9.27
2022-10-18T11:55:05.552Z,9.35
2022-10-18T11:57:56.871Z,12.68
2022-10-18T12:00:49.279Z,11.02
2022-10-18T12:03:54.567Z,16.08
2022-10-18T12:06:24.354Z,12.77
2022-10-18T12:08:55.945Z,12.00
2022-10-18T12:11:46.877Z,9.93
2022-10-18T12:14:39.064Z,15.25
2022-10-18T12:20:30.213Z,12.50
2022-10-18T12:23:09.420Z,14.32
2022-10-18T12:25:40.619Z,12.65
2022-10-18T12:28:33.914Z,12.95
2022-10-18T12:31:12.477Z,11.98
2022-10-18T12:33:45.326Z,12.27
2022-10-18T12:36:37.934Z,13.00
2022-10-18T12:39:10.882Z,16.85
2022-10-18T12:41:37.743Z,18.15
2022-10-18T12:44:07.021Z,12.55
2022-10-18T12:46:52.056Z,12.35
2022-10-18T12:49:29.695Z,13.10
2022-10-18T12:52:00.364Z,12.40
2022-10-18T12:54:30.715Z,13.35
2022-10-18T12:56:59.985Z,12.30
2022-10-18T12:59:26.919Z,18.33
2022-10-18T13:01:53.590Z,34.60
2022-10-18T13:04:35.472Z,14.40
2022-10-18T13:07:05.215Z,12.75
2022-10-18T13:09:37.007Z,12.13
2022-10-18T13:12:09.376Z,13.35
2022-10-18T13:15:05.867Z,13.82
2022-10-18T13:17:47.944Z,15.35
2022-10-18T13:20:37.085Z,13.38
2022-10-18T13:23:33.881Z,16.60
2022-10-18T13:26:19.397Z,16.40
2022-10-18T13:29:06.017Z,17.75
2022-10-18T13:31:41.992Z,13.18
2022-10-18T13:34:35.370Z,17.95
2022-10-18T13:37:10.956Z,18.25
2022-10-18T13:39:39.891Z,12.98
2022-10-18T13:42:15.408Z,19.88
2022-10-18T13:44:44.722Z,15.05
2022-10-18T13:47:16.619Z,15.23
2022-10-18T13:50:11.493Z,12.82
2022-10-18T13:52:43.902Z,20.38
2022-10-18T13:55:35.019Z,12.63
2022-10-18T13:58:04.751Z,23.33
2022-10-18T14:00:51.901Z,13.85
2022-10-18T14:03:57.991Z,13.18
2022-10-18T14:06:42.429Z,26.48
2022-10-18T14:09:26.296Z,16.45
2022-10-18T14:12:20.412Z,19.90
2022-10-18T14:14:56.193Z,23.98
2022-10-18T14:20:19.251Z,16.73
2022-10-18T14:23:02.652Z,20.70
2022-10-18T14:25:32.807Z,16.95
2022-10-18T14:28:11.525Z,24.85
2022-10-18T14:31:08.496Z,19.17
2022-10-18T14:33:45.496Z,19.55
2022-10-18T14:36:18.220Z,22.08
2022-10-18T14:38:52.091Z,18.33
2022-10-18T14:41:21.902Z,16.77
2022-10-18T14:43:49.401Z,18.63
2022-10-18T14:46:29.039Z,21.60
2022-10-18T14:49:02.194Z,18.52
2022-10-18T14:51:35.265Z,15.90
2022-10-18T14:54:02.570Z,19.08
2022-10-18T14:56:31.638Z,22.25
2022-10-18T14:59:02.477Z,19.23
2022-10-18T15:01:32.279Z,16.02
2022-10-18T15:04:01.154Z,22.40
2022-10-18T15:06:28.042Z,20.83
2022-10-18T15:08:57.918Z,17.60
2022-10-18T15:11:25.927Z,28.23
2022-10-18T15:13:56.780Z,20.73
2022-10-18T15:16:26.974Z,38.63
2022-10-18T15:19:06.094Z,28.23
2022-10-18T15:21:35.014Z,23.63
2022-10-18T15:24:27.022Z,16.23
2022-10-18T15:27:01.212Z,24.65
2022-10-18T15:29:33.219Z,25.70
2022-10-18T15:32:13.713Z,19.38
2022-10-18T15:34:40.413Z,23.10
2022-10-18T15:37:25.812Z,20.27
2022-10-18T15:40:18.555Z,18.98
2022-10-18T15:42:45.577Z,18.92
2022-10-18T15:45:24.599Z,36.03
2022-10-18T15:48:01.553Z,32.90
2022-10-18T15:50:47.596Z,20.20
2022-10-18T15:53:33.026Z,19.30
2022-10-18T15:56:07.629Z,20.83
2022-10-18T15:58:45.859Z,22.02
2022-10-18T16:01:22.620Z,21.05
2022-10-18T16:03:51.651Z,25.33
2022-10-18T16:06:18.583Z,27.50
2022-10-18T16:08:51.117Z,18.02
2022-10-18T16:11:22.842Z,25.73
2022-10-18T16:13:51.052Z,25.25
2022-10-18T16:16:22.304Z,20.25
2022-10-18T16:18:49.893Z,17.45
2022-10-18T16:21:24.745Z,36.60
2022-10-18T16:26:19.117Z,33.42
2022-10-18T16:28:46.648Z,22.05
2022-10-18T16:31:17.508Z,35.60
2022-10-18T16:33:44.913Z,31.52
2022-10-18T16:36:16.614Z,23.30
2022-10-18T16:38:44.679Z,19.92
2022-10-18T16:41:13.407Z,19.38
2022-10-18T16:43:40.112Z,23.20
2022-10-18T16:46:07.999Z,26.45
2022-10-18T16:48:34.836Z,23.85
2022-10-18T16:51:02.025Z,19.38
2022-10-18T16:53:28.845Z,27.70
2022-10-18T16:56:01.078Z,30.73
2022-10-18T16:58:29.682Z,24.67
2022-10-18T17:00:57.190Z,27.60
2022-10-18T17:03:24.590Z,30.17
2022-10-18T17:05:51.305Z,27.55
2022-10-18T17:08:24.412Z,23.58
2022-10-18T17:10:53.694Z,33.92
2022-10-18T17:13:21.479Z,38.47
2022-10-18T17:15:49.069Z,26.85
2022-10-18T17:18:19.155Z,29.73
2022-10-18T17:20:46.368Z,26.35
2022-10-18T17:23:13.386Z,30.77
2022-10-18T17:25:57.365Z,27.48
2022-10-18T17:28:30.722Z,33.58
2022-10-18T17:30:57.400Z,39.92
2022-10-18T17:33:24.040Z,26.48
2022-10-18T17:35:50.659Z,27.38
2022-10-18T17:38:17.350Z,27.17
2022-10-18T17:40:44.158Z,31.65
2022-10-18T17:43:13.381Z,30.80
2022-10-18T17:45:51.039Z,31.67
2022-10-18T17:48:18.065Z,29.02
2022-10-18T17:50:44.947Z,27.08
2022-10-18T17:53:13.109Z,26.63
2022-10-18T17:55:40.439Z,36.40
2022-10-18T17:58:07.073Z,32.08
2022-10-18T18:00:33.811Z,29.58
2022-10-18T18:03:00.892Z,31.48
2022-10-18T18:05:32.771Z,27.25
2022-10-18T18:08:03.714Z,25.02
2022-10-18T18:10:33.463Z,25.48
2022-10-18T18:13:00.982Z,31.20
2022-10-18T18:15:28.170Z,32.30
2022-10-18T18:17:57.392Z,33.13
2022-10-18T18:20:25.523Z,25.58
2022-10-18T18:22:52.304Z,30.95
2022-10-18T18:25:19.048Z,53.17
2022-10-18T18:27:45.799Z,24.77
2022-10-18T18:30:12.735Z,32.63
2022-10-18T18:32:39.610Z,31.33
2022-10-18T18:35:06.613Z,32.42
2022-10-18T18:37:33.273Z,27.85
2022-10-18T18:39:59.978Z,23.15
2022-10-18T18:42:26.687Z,33.42
2022-10-18T18:44:53.311Z,26.33
2022-10-18T18:47:21.983Z,24.35
2022-10-18T18:49:48.902Z,25.08
2022-10-18T18:52:15.794Z,30.60
2022-10-18T18:54:42.466Z,38.85
2022-10-18T18:57:09.075Z,41.45
2022-10-18T18:59:35.747Z,25.63
2022-10-18T19:02:02.335Z,32.00
2022-10-18T19:04:29.193Z,31.88
2022-10-18T19:06:56.363Z,25.27
2022-10-18T19:09:23.168Z,32.08
2022-10-18T19:11:55.383Z,36.83
2022-10-18T19:14:25.054Z,35.35
2022-10-18T19:16:57.507Z,25.35
2022-10-18T19:19:26.364Z,28.23
2022-10-18T19:21:55.704Z,30.25
2022-10-18T19:24:23.933Z,36.63
2022-10-18T19:26:51.714Z,35.50
2022-10-18T19:29:24.838Z,35.92
2022-10-18T19:31:54.534Z,31.45
2022-10-18T19:34:23.410Z,26.35
2022-10-18T19:36:50.973Z,27.88
2022-10-18T19:39:22.311Z,29.83
2022-10-18T19:41:51.014Z,22.10
2022-10-18T19:44:19.712Z,31.35
2022-10-18T19:46:46.710Z,34.72
2022-10-18T19:49:13.369Z,29.45
2022-10-18T19:51:40.382Z,29.10
2022-10-18T19:54:07.182Z,37.03
2022-10-18T19:56:33.914Z,30.60
2022-10-18T19:59:00.631Z,31.08
2022-10-18T20:01:29.010Z,33.33
2022-10-18T20:03:55.857Z,36.35
2022-10-18T20:06:22.835Z,26.92
2022-10-18T20:08:49.576Z,36.65
2022-10-18T20:11:21.481Z,42.75
2022-10-18T20:13:48.532Z,30.48
2022-10-18T20:16:17.117Z,29.02
2022-10-18T20:18:43.845Z,31.58
2022-10-18T20:21:15.287Z,35.28
2022-10-18T20:23:43.542Z,27.55
2022-10-18T20:26:18.255Z,29.45
2022-10-18T20:28:49.005Z,32.00
2022-10-18T20:31:18.460Z,34.55
2022-10-18T20:33:46.838Z,34.85
2022-10-18T20:36:16.508Z,25.05
2022-10-18T20:38:45.134Z,30.88
2022-10-18T20:41:21.770Z,28.88
2022-10-18T20:43:53.351Z,25.77
2022-10-18T20:46:20.985Z,30.17
2022-10-18T20:48:48.777Z,32.78
2022-10-18T20:51:17.106Z,26.35
2022-10-18T20:53:44.446Z,31.58
2022-10-18T20:56:17.013Z,32.97
2022-10-18T20:58:45.050Z,29.67
2022-10-18T21:01:24.906Z,33.00
2022-10-18T21:03:53.454Z,24.98
2022-10-18T21:06:26.262Z,33.42
2022-10-18T21:09:04.707Z,23.73
2022-10-18T21:11:34.619Z,27.20
2022-10-18T21:14:04.990Z,26.42
2022-10-18T21:16:35.167Z,29.30
2022-10-18T21:19:12.461Z,20.35
2022-10-18T21:21:41.451Z,23.35
2022-10-18T21:24:08.297Z,28.40
2022-10-18T21:26:35.525Z,21.63
2022-10-18T21:29:02.698Z,29.08
2022-10-18T21:31:35.287Z,20.23
2022-10-18T21:34:05.145Z,29.85
2022-10-18T21:36:34.792Z,28.80
2022-10-18T21:39:03.439Z,33.92
2022-10-18T21:41:30.923Z,25.25
2022-10-18T21:43:57.622Z,30.55
2022-10-18T21:46:27.036Z,27.73
2022-10-18T21:48:55.218Z,23.42
2022-10-18T21:51:24.297Z,30.23
2022-10-18T21:53:52.945Z,26.75
2022-10-18T21:56:22.598Z,26.13
2022-10-18T21:58:49.450Z,20.98
2022-10-18T22:01:28.067Z,30.35
2022-10-18T22:03:56.994Z,20.30
2022-10-18T22:06:24.742Z,27.10
2022-10-18T22:09:15.770Z,27.42
2022-10-18T22:11:46.053Z,33.28
2022-10-18T22:14:13.147Z,29.58
2022-10-18T22:16:39.957Z,38.03
2022-10-18T22:19:07.071Z,18.10
2022-10-18T22:21:34.294Z,25.00
2022-10-18T22:24:05.324Z,23.40
2022-10-18T22:26:37.881Z,21.83
2022-10-18T22:29:12.245Z,35.17
2022-10-18T22:31:41.041Z,20.00
2022-10-18T22:34:11.773Z,15.77
2022-10-18T22:36:38.656Z,23.75
2022-10-18T22:39:06.609Z,22.05
2022-10-18T22:41:34.918Z,20.35
2022-10-18T22:44:03.655Z,23.80
2022-10-18T22:46:31.711Z,21.08
2022-10-18T22:48:58.383Z,19.48
2022-10-18T22:51:25.198Z,14.98
2022-10-18T22:53:51.879Z,28.15
2022-10-18T22:56:20.796Z,23.55
2022-10-18T22:58:50.734Z,21.85
2022-10-18T23:01:20.655Z,28.85
2022-10-18T23:03:51.801Z,19.25
2022-10-18T23:06:24.898Z,17.42
2022-10-18T23:08:53.007Z,19.90
2022-10-18T23:11:20.166Z,23.20
2022-10-18T23:13:47.501Z,10.63
2022-10-18T23:16:14.590Z,21.50
2022-10-18T23:18:41.640Z,14.02
2022-10-18T23:21:10.831Z,14.23
2022-10-18T23:23:40.144Z,15.45
2022-10-18T23:26:15.184Z,19.38
2022-10-18T23:28:44.700Z,21.83
2022-10-18T23:31:17.978Z,12.90
2022-10-18T23:33:49.907Z,16.40
2022-10-18T23:36:17.176Z,10.23
2022-10-18T23:38:44.478Z,10.63
2022-10-18T23:41:13.737Z,15.68
2022-10-18T23:43:40.551Z,15.10
2022-10-18T23:46:08.020Z,11.80
2022-10-18T23:48:34.790Z,13.18
2022-10-18T23:51:02.307Z,19.30
2022-10-18T23:53:29.616Z,18.45
2022-10-18T23:55:58.998Z,14.45
2022-10-18T23:58:27.433Z,19.38
